Terral, Oklahoma
Current Conditions -  °F | °C
As of 6:55 PM on Friday 19 Dec 2014 (Local Time) from K0F2 Reporting Station
Overcast Overcast  
Wind Chill:   Ceiling: 1500
Heat Index:   Visibility: 7mi
Dew Point:   Wind: 5mph
Humidity: 91%   Direction: 10°N
Pressure: 30.2"   Gusts: NA
Location:  33.9°N, 97.94°W
Report Text: K0F2 200055Z AUTO 01004KT 7SM SCT009 OVC015 07/05 A3020 RMK AO2 T00650052
Loading
Personal Weather Stations






























Interactive Weather Map New forecast layout! Learn more

10-Day Weather Forecast

Advertisements
Track Severe Weather on mobile